TFM - Tactical Decision Aid
ID: Runway Winds: CIG/VIS Threshold:

KSLC - Salt Lake City Intl, UT, US

Updated at: 0137 UTC 12 May 2021
Latest TAF at: 2340 UTC 11 May 2021

TAF Board

Time0054Z 12/02Z 12/03Z 12/04Z 12/05Z 12/06Z 12/07Z 12/08Z 12/09Z 12/10Z 12/11Z 12/12Z 12/13Z 12/14Z>>
Type OBS PRVL PRVL PRVL PRVL PRVL PRVL PRVL PRVL PRVL PRVL PRVL PRVL PRVL
VIS 10 >6 >6 >6 >6 >6 >6 >6 >6 >6 >6 >6 >6 >6
CIG -- -- -- -- -- -- -- -- -- -- -- -- -- --
Cover FEW FEW FEW SKC SKC SKC SKC SKC SKC SKC SKC SKC SKC SKC
FltCat VFR VFR VFR VFR VFR VFR VFR VFR VFR VFR VFR VFR VFR VFR
WX -- -- -- -- -- -- -- -- -- -- -- -- -- --
WDir 280 330 330 150 150 150 150 150 150 150 150 150 150 150
WSpd 9 8 8 4 4 4 4 4 4 4 4 4 4 4
WGst -- 14 14 -- -- -- -- -- -- -- -- -- -- --

TDA Impact Legend

  None Marginal Slight Moderate High
Visibility (sm) >5 3≤X≤5 1≤X<3 0.5≤X<1 <0.5
Ceiling (100 ft) >30 10≤X≤30 4≤X<10 2≤X<4 <2
Wind Speed (kt) <15 15≤X<25 25≤X<30 ≥30
Wind Gust (kt) <15 15≤X<25 25≤X<35 ≥35
Weather No Wx Reported VCTS -TS,-FZRA TS,FZRA +TS,+FZRA
TAF
KSLC 112340Z 1200/1306 33008G14KT P6SM FEW070
  FM120400 15004KT P6SM SKC
  FM121700 31005KT P6SM FEW200


METAR
KSLC 120054Z 28009KT 10SM FEW080 FEW200 17/M07 A3013 RMK AO2 SLP182 T01671067
KSLC 112354Z 32009KT 10SM FEW080 SCT200 17/M09 A3013 RMK AO2 SLP182 T01721089 10178 20133 56007
KSLC 112254Z 32006KT 10SM FEW080 SCT200 SCT250 17/M04 A3014 RMK AO2 SLP183 T01721039

Radar Display
Forecast Discussion